sensor_id;sensor_type;location;lat;lon;timestamp;P1;durP1;ratioP1;P2;durP2;ratioP2
18838;SDS011;9548;56.920;14.804;2022-10-16T00:00:00;29.38;;;14.95;;
18838;SDS011;9548;56.920;14.804;2022-10-16T00:02:27;27.65;;;14.88;;
18838;SDS011;9548;56.920;14.804;2022-10-16T00:04:54;29.73;;;15.15;;
18838;SDS011;9548;56.920;14.804;2022-10-16T00:07:21;30.25;;;14.75;;
18838;SDS011;9548;56.920;14.804;2022-10-16T00:09:48;30.63;;;15.38;;
18838;SDS011;9548;56.920;14.804;2022-10-16T00:12:14;29.73;;;13.88;;
18838;SDS011;9548;56.920;14.804;2022-10-16T00:14:43;26.90;;;13.95;;
18838;SDS011;9548;56.920;14.804;2022-10-16T00:17:10;30.15;;;12.95;;
18838;SDS011;9548;56.920;14.804;2022-10-16T00:19:36;31.58;;;13.30;;
18838;SDS011;9548;56.920;14.804;2022-10-16T00:22:03;26.27;;;12.75;;
18838;SDS011;9548;56.920;14.804;2022-10-16T00:24:30;25.83;;;12.95;;
18838;SDS011;9548;56.920;14.804;2022-10-16T00:26:57;27.98;;;12.65;;
18838;SDS011;9548;56.920;14.804;2022-10-16T00:29:24;28.45;;;13.15;;
18838;SDS011;9548;56.920;14.804;2022-10-16T00:31:52;23.15;;;11.52;;
18838;SDS011;9548;56.920;14.804;2022-10-16T00:34:19;24.50;;;13.48;;
18838;SDS011;9548;56.920;14.804;2022-10-16T00:36:46;25.15;;;12.35;;
18838;SDS011;9548;56.920;14.804;2022-10-16T00:39:13;25.10;;;12.95;;
18838;SDS011;9548;56.920;14.804;2022-10-16T00:41:40;28.02;;;13.18;;
18838;SDS011;9548;56.920;14.804;2022-10-16T00:47:10;25.00;;;12.27;;
18838;SDS011;9548;56.920;14.804;2022-10-16T00:49:39;25.95;;;12.80;;
18838;SDS011;9548;56.920;14.804;2022-10-16T00:52:06;26.73;;;12.95;;
18838;SDS011;9548;56.920;14.804;2022-10-16T00:54:32;29.08;;;13.05;;
18838;SDS011;9548;56.920;14.804;2022-10-16T00:57:01;27.77;;;12.98;;
18838;SDS011;9548;56.920;14.804;2022-10-16T00:59:30;26.90;;;13.77;;
18838;SDS011;9548;56.920;14.804;2022-10-16T01:01:59;26.70;;;13.20;;
18838;SDS011;9548;56.920;14.804;2022-10-16T01:04:29;26.90;;;13.73;;
18838;SDS011;9548;56.920;14.804;2022-10-16T01:07:04;27.35;;;14.30;;
18838;SDS011;9548;56.920;14.804;2022-10-16T01:09:39;26.77;;;13.55;;
18838;SDS011;9548;56.920;14.804;2022-10-16T01:12:16;33.97;;;15.27;;
18838;SDS011;9548;56.920;14.804;2022-10-16T01:14:52;30.50;;;13.88;;
18838;SDS011;9548;56.920;14.804;2022-10-16T01:17:22;29.17;;;14.55;;
18838;SDS011;9548;56.920;14.804;2022-10-16T01:20:00;32.13;;;14.90;;
18838;SDS011;9548;56.920;14.804;2022-10-16T01:22:34;27.58;;;13.90;;
18838;SDS011;9548;56.920;14.804;2022-10-16T01:25:09;29.15;;;13.27;;
18838;SDS011;9548;56.920;14.804;2022-10-16T01:27:44;33.03;;;15.23;;
18838;SDS011;9548;56.920;14.804;2022-10-16T01:30:15;36.60;;;15.63;;
18838;SDS011;9548;56.920;14.804;2022-10-16T01:32:48;32.75;;;15.90;;
18838;SDS011;9548;56.920;14.804;2022-10-16T01:35:20;35.33;;;15.38;;
18838;SDS011;9548;56.920;14.804;2022-10-16T01:37:52;35.72;;;15.45;;
18838;SDS011;9548;56.920;14.804;2022-10-16T01:40:24;37.60;;;16.33;;
18838;SDS011;9548;56.920;14.804;2022-10-16T01:42:55;34.92;;;16.65;;
18838;SDS011;9548;56.920;14.804;2022-10-16T01:45:26;35.55;;;16.63;;
18838;SDS011;9548;56.920;14.804;2022-10-16T01:47:56;33.42;;;16.75;;
18838;SDS011;9548;56.920;14.804;2022-10-16T01:50:29;34.67;;;16.33;;
18838;SDS011;9548;56.920;14.804;2022-10-16T01:52:59;34.28;;;16.60;;
18838;SDS011;9548;56.920;14.804;2022-10-16T01:55:28;33.25;;;15.95;;
18838;SDS011;9548;56.920;14.804;2022-10-16T01:58:00;34.05;;;15.85;;
18838;SDS011;9548;56.920;14.804;2022-10-16T02:00:28;37.88;;;15.82;;
18838;SDS011;9548;56.920;14.804;2022-10-16T02:02:56;36.22;;;16.10;;
18838;SDS011;9548;56.920;14.804;2022-10-16T02:05:28;34.35;;;16.48;;
18838;SDS011;9548;56.920;14.804;2022-10-16T02:07:57;38.40;;;16.52;;
18838;SDS011;9548;56.920;14.804;2022-10-16T02:10:24;34.90;;;16.23;;
18838;SDS011;9548;56.920;14.804;2022-10-16T02:12:56;33.92;;;16.38;;
18838;SDS011;9548;56.920;14.804;2022-10-16T02:15:28;32.10;;;14.93;;
18838;SDS011;9548;56.920;14.804;2022-10-16T02:17:55;33.38;;;15.18;;
18838;SDS011;9548;56.920;14.804;2022-10-16T02:20:22;31.60;;;14.75;;
18838;SDS011;9548;56.920;14.804;2022-10-16T02:22:53;31.58;;;14.68;;
18838;SDS011;9548;56.920;14.804;2022-10-16T02:25:22;35.53;;;15.05;;
18838;SDS011;9548;56.920;14.804;2022-10-16T02:27:55;32.38;;;14.93;;
18838;SDS011;9548;56.920;14.804;2022-10-16T02:30:29;29.17;;;14.27;;
18838;SDS011;9548;56.920;14.804;2022-10-16T02:33:00;28.17;;;14.13;;
18838;SDS011;9548;56.920;14.804;2022-10-16T02:35:30;28.52;;;14.30;;
18838;SDS011;9548;56.920;14.804;2022-10-16T02:37:57;27.33;;;13.50;;
18838;SDS011;9548;56.920;14.804;2022-10-16T02:40:25;24.90;;;13.80;;
18838;SDS011;9548;56.920;14.804;2022-10-16T02:42:53;28.10;;;12.68;;
18838;SDS011;9548;56.920;14.804;2022-10-16T02:45:21;22.95;;;12.88;;
18838;SDS011;9548;56.920;14.804;2022-10-16T02:47:50;26.40;;;12.73;;
18838;SDS011;9548;56.920;14.804;2022-10-16T02:50:17;26.40;;;13.73;;
18838;SDS011;9548;56.920;14.804;2022-10-16T02:52:44;22.77;;;12.48;;
18838;SDS011;9548;56.920;14.804;2022-10-16T02:55:11;22.40;;;12.75;;
18838;SDS011;9548;56.920;14.804;2022-10-16T02:57:38;21.83;;;12.32;;
18838;SDS011;9548;56.920;14.804;2022-10-16T03:00:06;20.27;;;10.98;;
18838;SDS011;9548;56.920;14.804;2022-10-16T03:02:35;22.02;;;10.68;;
18838;SDS011;9548;56.920;14.804;2022-10-16T03:05:03;20.73;;;11.50;;
18838;SDS011;9548;56.920;14.804;2022-10-16T03:07:31;21.08;;;10.93;;
18838;SDS011;9548;56.920;14.804;2022-10-16T03:09:58;21.67;;;11.45;;
18838;SDS011;9548;56.920;14.804;2022-10-16T03:12:25;18.48;;;10.93;;
18838;SDS011;9548;56.920;14.804;2022-10-16T03:14:52;21.65;;;10.80;;
18838;SDS011;9548;56.920;14.804;2022-10-16T03:17:19;18.83;;;10.52;;
18838;SDS011;9548;56.920;14.804;2022-10-16T03:19:46;23.27;;;11.75;;
18838;SDS011;9548;56.920;14.804;2022-10-16T03:22:14;22.25;;;10.68;;
18838;SDS011;9548;56.920;14.804;2022-10-16T03:24:42;19.05;;;11.32;;
18838;SDS011;9548;56.920;14.804;2022-10-16T03:27:08;22.33;;;11.23;;
18838;SDS011;9548;56.920;14.804;2022-10-16T03:29:35;19.60;;;11.32;;
18838;SDS011;9548;56.920;14.804;2022-10-16T03:32:02;19.73;;;10.93;;
18838;SDS011;9548;56.920;14.804;2022-10-16T03:34:29;20.08;;;11.18;;
18838;SDS011;9548;56.920;14.804;2022-10-16T03:36:56;19.08;;;10.48;;
18838;SDS011;9548;56.920;14.804;2022-10-16T03:39:25;17.52;;;10.25;;
18838;SDS011;9548;56.920;14.804;2022-10-16T03:41:52;16.63;;;10.45;;
18838;SDS011;9548;56.920;14.804;2022-10-16T03:44:19;20.50;;;10.80;;
18838;SDS011;9548;56.920;14.804;2022-10-16T03:46:46;16.65;;;10.27;;
18838;SDS011;9548;56.920;14.804;2022-10-16T03:49:13;21.75;;;10.63;;
18838;SDS011;9548;56.920;14.804;2022-10-16T03:51:40;16.63;;;10.55;;
18838;SDS011;9548;56.920;14.804;2022-10-16T03:54:07;17.38;;;10.02;;
18838;SDS011;9548;56.920;14.804;2022-10-16T03:56:35;16.17;;;9.63;;
18838;SDS011;9548;56.920;14.804;2022-10-16T03:59:02;19.85;;;9.32;;
18838;SDS011;9548;56.920;14.804;2022-10-16T04:01:29;17.40;;;9.75;;
18838;SDS011;9548;56.920;14.804;2022-10-16T04:03:55;17.90;;;9.88;;
18838;SDS011;9548;56.920;14.804;2022-10-16T04:06:22;20.48;;;9.75;;
18838;SDS011;9548;56.920;14.804;2022-10-16T04:08:49;18.75;;;9.43;;
18838;SDS011;9548;56.920;14.804;2022-10-16T04:11:16;17.40;;;9.40;;
18838;SDS011;9548;56.920;14.804;2022-10-16T04:13:44;19.88;;;9.95;;
18838;SDS011;9548;56.920;14.804;2022-10-16T04:16:11;16.23;;;9.80;;
18838;SDS011;9548;56.920;14.804;2022-10-16T04:18:39;18.17;;;10.48;;
18838;SDS011;9548;56.920;14.804;2022-10-16T04:21:06;21.02;;;10.25;;
18838;SDS011;9548;56.920;14.804;2022-10-16T04:23:33;22.23;;;10.85;;
18838;SDS011;9548;56.920;14.804;2022-10-16T04:26:00;24.42;;;10.35;;
18838;SDS011;9548;56.920;14.804;2022-10-16T04:28:27;19.45;;;9.80;;
18838;SDS011;9548;56.920;14.804;2022-10-16T04:30:56;20.10;;;10.32;;
18838;SDS011;9548;56.920;14.804;2022-10-16T04:33:23;27.25;;;11.15;;
18838;SDS011;9548;56.920;14.804;2022-10-16T04:35:55;25.10;;;10.32;;
18838;SDS011;9548;56.920;14.804;2022-10-16T04:38:22;21.00;;;11.10;;
18838;SDS011;9548;56.920;14.804;2022-10-16T04:40:49;20.02;;;10.80;;
18838;SDS011;9548;56.920;14.804;2022-10-16T04:43:17;21.98;;;11.35;;
18838;SDS011;9548;56.920;14.804;2022-10-16T04:45:44;24.45;;;10.77;;
18838;SDS011;9548;56.920;14.804;2022-10-16T04:48:12;24.20;;;11.55;;
18838;SDS011;9548;56.920;14.804;2022-10-16T04:50:39;21.63;;;11.20;;
18838;SDS011;9548;56.920;14.804;2022-10-16T04:53:07;26.80;;;11.63;;
18838;SDS011;9548;56.920;14.804;2022-10-16T04:55:34;24.15;;;11.60;;
18838;SDS011;9548;56.920;14.804;2022-10-16T04:58:02;24.65;;;11.30;;
18838;SDS011;9548;56.920;14.804;2022-10-16T05:00:29;29.13;;;11.50;;
18838;SDS011;9548;56.920;14.804;2022-10-16T05:02:56;22.20;;;11.15;;
18838;SDS011;9548;56.920;14.804;2022-10-16T05:05:25;25.95;;;11.43;;
18838;SDS011;9548;56.920;14.804;2022-10-16T05:07:53;25.70;;;11.85;;
18838;SDS011;9548;56.920;14.804;2022-10-16T05:10:20;25.40;;;11.68;;
18838;SDS011;9548;56.920;14.804;2022-10-16T05:12:47;26.70;;;11.77;;
18838;SDS011;9548;56.920;14.804;2022-10-16T05:15:13;26.65;;;11.75;;
18838;SDS011;9548;56.920;14.804;2022-10-16T05:17:40;28.23;;;12.50;;
18838;SDS011;9548;56.920;14.804;2022-10-16T05:20:07;25.70;;;11.95;;
18838;SDS011;9548;56.920;14.804;2022-10-16T05:22:36;29.52;;;11.77;;
18838;SDS011;9548;56.920;14.804;2022-10-16T05:25:03;28.10;;;11.75;;
18838;SDS011;9548;56.920;14.804;2022-10-16T05:27:30;26.15;;;10.80;;
18838;SDS011;9548;56.920;14.804;2022-10-16T05:29:57;30.17;;;11.98;;
18838;SDS011;9548;56.920;14.804;2022-10-16T05:32:24;23.65;;;12.13;;
18838;SDS011;9548;56.920;14.804;2022-10-16T05:34:51;25.60;;;11.43;;
18838;SDS011;9548;56.920;14.804;2022-10-16T05:37:18;25.23;;;11.43;;
18838;SDS011;9548;56.920;14.804;2022-10-16T05:39:46;24.48;;;11.32;;
18838;SDS011;9548;56.920;14.804;2022-10-16T05:42:13;27.05;;;11.20;;
18838;SDS011;9548;56.920;14.804;2022-10-16T05:44:40;28.55;;;12.27;;
18838;SDS011;9548;56.920;14.804;2022-10-16T05:47:07;30.33;;;11.68;;
18838;SDS011;9548;56.920;14.804;2022-10-16T05:49:35;33.70;;;12.57;;
18838;SDS011;9548;56.920;14.804;2022-10-16T05:52:02;27.95;;;12.63;;
18838;SDS011;9548;56.920;14.804;2022-10-16T05:54:30;31.48;;;12.02;;
18838;SDS011;9548;56.920;14.804;2022-10-16T05:56:58;29.92;;;11.90;;
18838;SDS011;9548;56.920;14.804;2022-10-16T05:59:25;27.17;;;11.88;;
18838;SDS011;9548;56.920;14.804;2022-10-16T06:01:52;29.50;;;11.80;;
18838;SDS011;9548;56.920;14.804;2022-10-16T06:04:19;22.67;;;11.35;;
18838;SDS011;9548;56.920;14.804;2022-10-16T06:06:46;26.10;;;11.63;;
18838;SDS011;9548;56.920;14.804;2022-10-16T06:09:12;29.30;;;11.88;;
18838;SDS011;9548;56.920;14.804;2022-10-16T06:11:39;28.95;;;11.25;;
18838;SDS011;9548;56.920;14.804;2022-10-16T06:14:08;29.83;;;11.48;;
18838;SDS011;9548;56.920;14.804;2022-10-16T06:16:35;30.67;;;11.73;;
18838;SDS011;9548;56.920;14.804;2022-10-16T06:19:03;25.10;;;10.82;;
18838;SDS011;9548;56.920;14.804;2022-10-16T06:21:33;23.00;;;10.52;;
18838;SDS011;9548;56.920;14.804;2022-10-16T06:24:00;21.98;;;10.13;;
18838;SDS011;9548;56.920;14.804;2022-10-16T06:26:28;22.02;;;10.13;;
18838;SDS011;9548;56.920;14.804;2022-10-16T06:28:57;20.25;;;9.50;;
18838;SDS011;9548;56.920;14.804;2022-10-16T06:31:26;21.48;;;8.82;;
18838;SDS011;9548;56.920;14.804;2022-10-16T06:33:56;19.30;;;9.07;;
18838;SDS011;9548;56.920;14.804;2022-10-16T06:36:23;15.52;;;8.68;;
18838;SDS011;9548;56.920;14.804;2022-10-16T06:38:50;15.38;;;7.47;;
18838;SDS011;9548;56.920;14.804;2022-10-16T06:41:18;19.65;;;8.30;;
18838;SDS011;9548;56.920;14.804;2022-10-16T06:43:47;14.65;;;8.07;;
18838;SDS011;9548;56.920;14.804;2022-10-16T06:46:15;14.05;;;7.28;;
18838;SDS011;9548;56.920;14.804;2022-10-16T06:48:45;15.57;;;7.50;;
18838;SDS011;9548;56.920;14.804;2022-10-16T06:51:13;12.85;;;6.90;;
18838;SDS011;9548;56.920;14.804;2022-10-16T06:53:41;14.93;;;6.75;;
18838;SDS011;9548;56.920;14.804;2022-10-16T06:56:10;12.15;;;6.07;;
18838;SDS011;9548;56.920;14.804;2022-10-16T06:58:38;12.63;;;6.35;;
18838;SDS011;9548;56.920;14.804;2022-10-16T07:01:05;17.05;;;6.35;;
18838;SDS011;9548;56.920;14.804;2022-10-16T07:03:33;23.20;;;6.95;;
18838;SDS011;9548;56.920;14.804;2022-10-16T07:06:03;19.58;;;6.78;;
18838;SDS011;9548;56.920;14.804;2022-10-16T07:08:32;15.38;;;6.40;;
18838;SDS011;9548;56.920;14.804;2022-10-16T07:10:59;16.33;;;6.03;;
18838;SDS011;9548;56.920;14.804;2022-10-16T07:13:26;14.57;;;6.20;;
18838;SDS011;9548;56.920;14.804;2022-10-16T07:15:53;14.30;;;6.28;;
18838;SDS011;9548;56.920;14.804;2022-10-16T07:18:20;14.18;;;5.95;;
18838;SDS011;9548;56.920;14.804;2022-10-16T07:20:51;10.43;;;5.18;;
18838;SDS011;9548;56.920;14.804;2022-10-16T07:23:20;11.95;;;5.00;;
18838;SDS011;9548;56.920;14.804;2022-10-16T07:25:53;7.43;;;4.40;;
18838;SDS011;9548;56.920;14.804;2022-10-16T07:28:20;11.73;;;5.15;;
18838;SDS011;9548;56.920;14.804;2022-10-16T07:30:47;12.48;;;5.63;;
18838;SDS011;9548;56.920;14.804;2022-10-16T07:33:15;12.23;;;4.90;;
18838;SDS011;9548;56.920;14.804;2022-10-16T07:35:47;9.98;;;4.80;;
18838;SDS011;9548;56.920;14.804;2022-10-16T07:38:14;7.95;;;4.40;;
18838;SDS011;9548;56.920;14.804;2022-10-16T07:40:43;15.45;;;4.65;;
18838;SDS011;9548;56.920;14.804;2022-10-16T07:43:10;8.50;;;4.63;;
18838;SDS011;9548;56.920;14.804;2022-10-16T07:45:37;13.00;;;4.28;;
18838;SDS011;9548;56.920;14.804;2022-10-16T07:48:04;10.18;;;4.72;;
18838;SDS011;9548;56.920;14.804;2022-10-16T07:50:31;8.50;;;4.47;;
18838;SDS011;9548;56.920;14.804;2022-10-16T07:52:58;10.00;;;4.32;;
18838;SDS011;9548;56.920;14.804;2022-10-16T07:55:25;11.88;;;4.25;;
18838;SDS011;9548;56.920;14.804;2022-10-16T07:57:54;9.38;;;4.50;;
18838;SDS011;9548;56.920;14.804;2022-10-16T08:00:21;6.57;;;3.75;;
18838;SDS011;9548;56.920;14.804;2022-10-16T08:02:48;11.50;;;3.88;;
18838;SDS011;9548;56.920;14.804;2022-10-16T08:05:14;7.20;;;3.30;;
18838;SDS011;9548;56.920;14.804;2022-10-16T08:07:41;8.13;;;3.40;;
18838;SDS011;9548;56.920;14.804;2022-10-16T08:10:10;8.13;;;3.30;;
18838;SDS011;9548;56.920;14.804;2022-10-16T08:12:42;8.35;;;3.38;;
18838;SDS011;9548;56.920;14.804;2022-10-16T08:15:11;6.32;;;3.33;;
18838;SDS011;9548;56.920;14.804;2022-10-16T08:17:38;6.05;;;3.13;;
18838;SDS011;9548;56.920;14.804;2022-10-16T08:20:05;9.18;;;3.20;;
18838;SDS011;9548;56.920;14.804;2022-10-16T08:22:33;11.35;;;3.38;;
18838;SDS011;9548;56.920;14.804;2022-10-16T08:24:59;4.88;;;2.72;;
18838;SDS011;9548;56.920;14.804;2022-10-16T08:27:30;6.22;;;3.47;;
18838;SDS011;9548;56.920;14.804;2022-10-16T08:29:57;9.93;;;3.03;;
18838;SDS011;9548;56.920;14.804;2022-10-16T08:32:25;6.75;;;2.88;;
18838;SDS011;9548;56.920;14.804;2022-10-16T08:34:52;7.18;;;3.28;;
18838;SDS011;9548;56.920;14.804;2022-10-16T08:37:19;6.85;;;2.90;;
18838;SDS011;9548;56.920;14.804;2022-10-16T08:39:46;5.07;;;2.80;;
18838;SDS011;9548;56.920;14.804;2022-10-16T08:42:19;4.53;;;2.50;;
18838;SDS011;9548;56.920;14.804;2022-10-16T08:45:21;9.52;;;2.83;;
18838;SDS011;9548;56.920;14.804;2022-10-16T08:48:02;5.93;;;2.63;;
18838;SDS011;9548;56.920;14.804;2022-10-16T08:50:39;9.43;;;2.90;;
18838;SDS011;9548;56.920;14.804;2022-10-16T08:53:06;7.35;;;2.53;;
18838;SDS011;9548;56.920;14.804;2022-10-16T08:55:41;5.97;;;2.35;;
18838;SDS011;9548;56.920;14.804;2022-10-16T08:58:12;3.03;;;2.15;;
18838;SDS011;9548;56.920;14.804;2022-10-16T09:00:40;10.20;;;3.25;;
18838;SDS011;9548;56.920;14.804;2022-10-16T09:03:14;7.00;;;2.00;;
18838;SDS011;9548;56.920;14.804;2022-10-16T09:05:57;5.15;;;2.00;;
18838;SDS011;9548;56.920;14.804;2022-10-16T09:08:36;7.97;;;2.05;;
18838;SDS011;9548;56.920;14.804;2022-10-16T09:11:11;7.30;;;2.00;;
18838;SDS011;9548;56.920;14.804;2022-10-16T09:13:48;4.50;;;1.80;;
18838;SDS011;9548;56.920;14.804;2022-10-16T09:16:18;6.05;;;2.15;;
18838;SDS011;9548;56.920;14.804;2022-10-16T09:18:54;5.60;;;1.88;;
18838;SDS011;9548;56.920;14.804;2022-10-16T09:21:26;6.82;;;2.30;;
18838;SDS011;9548;56.920;14.804;2022-10-16T09:23:57;4.70;;;2.03;;
18838;SDS011;9548;56.920;14.804;2022-10-16T09:26:26;10.40;;;2.10;;
18838;SDS011;9548;56.920;14.804;2022-10-16T09:28:53;9.43;;;2.00;;
18838;SDS011;9548;56.920;14.804;2022-10-16T09:31:21;10.25;;;1.90;;
18838;SDS011;9548;56.920;14.804;2022-10-16T09:33:50;8.27;;;2.00;;
18838;SDS011;9548;56.920;14.804;2022-10-16T09:36:21;7.53;;;1.88;;
18838;SDS011;9548;56.920;14.804;2022-10-16T09:39:01;6.15;;;1.50;;
18838;SDS011;9548;56.920;14.804;2022-10-16T09:41:29;7.90;;;2.08;;
18838;SDS011;9548;56.920;14.804;2022-10-16T09:43:57;4.43;;;1.60;;
18838;SDS011;9548;56.920;14.804;2022-10-16T09:46:27;8.50;;;1.80;;
18838;SDS011;9548;56.920;14.804;2022-10-16T09:48:58;7.60;;;1.60;;
18838;SDS011;9548;56.920;14.804;2022-10-16T09:51:28;6.05;;;1.73;;
18838;SDS011;9548;56.920;14.804;2022-10-16T09:53:58;4.30;;;1.67;;
18838;SDS011;9548;56.920;14.804;2022-10-16T09:56:27;3.85;;;1.50;;
18838;SDS011;9548;56.920;14.804;2022-10-16T09:58:56;7.05;;;1.58;;
18838;SDS011;9548;56.920;14.804;2022-10-16T10:01:26;9.07;;;1.70;;
18838;SDS011;9548;56.920;14.804;2022-10-16T10:03:58;6.32;;;1.38;;
18838;SDS011;9548;56.920;14.804;2022-10-16T10:06:28;5.55;;;1.75;;
18838;SDS011;9548;56.920;14.804;2022-10-16T10:09:04;5.72;;;1.50;;
18838;SDS011;9548;56.920;14.804;2022-10-16T10:11:36;6.80;;;1.67;;
18838;SDS011;9548;56.920;14.804;2022-10-16T10:14:04;5.93;;;1.50;;
18838;SDS011;9548;56.920;14.804;2022-10-16T10:16:32;6.90;;;1.67;;
18838;SDS011;9548;56.920;14.804;2022-10-16T10:19:00;9.77;;;1.80;;
18838;SDS011;9548;56.920;14.804;2022-10-16T10:21:27;10.75;;;1.80;;
18838;SDS011;9548;56.920;14.804;2022-10-16T10:23:54;4.68;;;1.52;;
18838;SDS011;9548;56.920;14.804;2022-10-16T10:26:23;5.75;;;1.42;;
18838;SDS011;9548;56.920;14.804;2022-10-16T10:28:55;4.68;;;1.48;;
18838;SDS011;9548;56.920;14.804;2022-10-16T10:31:32;5.43;;;1.40;;
18838;SDS011;9548;56.920;14.804;2022-10-16T10:34:11;5.15;;;1.15;;
18838;SDS011;9548;56.920;14.804;2022-10-16T10:36:52;5.65;;;1.27;;
18838;SDS011;9548;56.920;14.804;2022-10-16T10:39:25;8.02;;;1.30;;
18838;SDS011;9548;56.920;14.804;2022-10-16T10:42:09;6.50;;;1.35;;
18838;SDS011;9548;56.920;14.804;2022-10-16T10:44:51;7.70;;;1.50;;
18838;SDS011;9548;56.920;14.804;2022-10-16T10:47:30;7.25;;;1.40;;
18838;SDS011;9548;56.920;14.804;2022-10-16T10:50:08;5.22;;;1.75;;
18838;SDS011;9548;56.920;14.804;2022-10-16T10:52:47;6.65;;;1.52;;
18838;SDS011;9548;56.920;14.804;2022-10-16T10:55:26;4.57;;;1.35;;
18838;SDS011;9548;56.920;14.804;2022-10-16T10:58:12;7.03;;;1.60;;
18838;SDS011;9548;56.920;14.804;2022-10-16T11:01:08;5.18;;;1.65;;
18838;SDS011;9548;56.920;14.804;2022-10-16T11:03:44;7.97;;;1.80;;
18838;SDS011;9548;56.920;14.804;2022-10-16T11:06:24;9.85;;;2.00;;
18838;SDS011;9548;56.920;14.804;2022-10-16T11:08:55;12.32;;;1.50;;
18838;SDS011;9548;56.920;14.804;2022-10-16T11:11:29;8.57;;;1.88;;
18838;SDS011;9548;56.920;14.804;2022-10-16T11:14:00;7.95;;;1.67;;
18838;SDS011;9548;56.920;14.804;2022-10-16T11:16:33;7.47;;;1.70;;
18838;SDS011;9548;56.920;14.804;2022-10-16T11:19:08;9.15;;;1.67;;
18838;SDS011;9548;56.920;14.804;2022-10-16T11:21:42;10.50;;;1.63;;
18838;SDS011;9548;56.920;14.804;2022-10-16T11:24:16;6.85;;;1.52;;
18838;SDS011;9548;56.920;14.804;2022-10-16T11:26:48;4.88;;;1.60;;
18838;SDS011;9548;56.920;14.804;2022-10-16T11:29:17;7.60;;;1.70;;
18838;SDS011;9548;56.920;14.804;2022-10-16T11:31:50;7.13;;;1.73;;
18838;SDS011;9548;56.920;14.804;2022-10-16T11:34:22;7.55;;;1.80;;
18838;SDS011;9548;56.920;14.804;2022-10-16T11:36:57;11.77;;;1.75;;
18838;SDS011;9548;56.920;14.804;2022-10-16T11:39:30;7.35;;;1.98;;
18838;SDS011;9548;56.920;14.804;2022-10-16T11:41:59;3.78;;;1.58;;
18838;SDS011;9548;56.920;14.804;2022-10-16T11:44:37;6.82;;;1.77;;
18838;SDS011;9548;56.920;14.804;2022-10-16T11:47:24;8.35;;;1.90;;
18838;SDS011;9548;56.920;14.804;2022-10-16T11:49:58;6.45;;;1.30;;
18838;SDS011;9548;56.920;14.804;2022-10-16T11:52:30;5.40;;;1.33;;
18838;SDS011;9548;56.920;14.804;2022-10-16T11:55:04;5.35;;;1.15;;
18838;SDS011;9548;56.920;14.804;2022-10-16T11:57:41;3.10;;;1.23;;
18838;SDS011;9548;56.920;14.804;2022-10-16T12:00:14;4.10;;;1.10;;
18838;SDS011;9548;56.920;14.804;2022-10-16T12:02:50;5.00;;;1.23;;
18838;SDS011;9548;56.920;14.804;2022-10-16T12:05:25;5.25;;;1.30;;
18838;SDS011;9548;56.920;14.804;2022-10-16T12:08:04;5.85;;;1.25;;
18838;SDS011;9548;56.920;14.804;2022-10-16T12:10:36;4.55;;;1.00;;
18838;SDS011;9548;56.920;14.804;2022-10-16T12:13:04;5.85;;;1.30;;
18838;SDS011;9548;56.920;14.804;2022-10-16T12:15:32;3.80;;;1.02;;
18838;SDS011;9548;56.920;14.804;2022-10-16T12:18:00;3.03;;;1.00;;
18838;SDS011;9548;56.920;14.804;2022-10-16T12:20:28;4.45;;;1.10;;
18838;SDS011;9548;56.920;14.804;2022-10-16T12:22:58;6.68;;;1.10;;
18838;SDS011;9548;56.920;14.804;2022-10-16T12:25:28;5.00;;;1.15;;
18838;SDS011;9548;56.920;14.804;2022-10-16T12:27:58;7.57;;;1.02;;
18838;SDS011;9548;56.920;14.804;2022-10-16T12:30:28;3.55;;;1.05;;
18838;SDS011;9548;56.920;14.804;2022-10-16T12:32:57;3.67;;;1.20;;
18838;SDS011;9548;56.920;14.804;2022-10-16T12:35:27;5.20;;;1.10;;
18838;SDS011;9548;56.920;14.804;2022-10-16T12:38:04;3.65;;;0.90;;
18838;SDS011;9548;56.920;14.804;2022-10-16T12:40:42;5.22;;;1.17;;
18838;SDS011;9548;56.920;14.804;2022-10-16T12:43:11;4.15;;;0.88;;
18838;SDS011;9548;56.920;14.804;2022-10-16T12:45:39;3.10;;;0.88;;
18838;SDS011;9548;56.920;14.804;2022-10-16T12:48:18;2.10;;;0.82;;
18838;SDS011;9548;56.920;14.804;2022-10-16T12:50:47;4.03;;;1.20;;
18838;SDS011;9548;56.920;14.804;2022-10-16T12:53:18;5.45;;;1.60;;
18838;SDS011;9548;56.920;14.804;2022-10-16T12:55:50;5.07;;;0.90;;
18838;SDS011;9548;56.920;14.804;2022-10-16T12:58:30;7.07;;;1.83;;
18838;SDS011;9548;56.920;14.804;2022-10-16T13:01:10;3.78;;;0.70;;
18838;SDS011;9548;56.920;14.804;2022-10-16T13:06:44;3.95;;;0.80;;
18838;SDS011;9548;56.920;14.804;2022-10-16T13:09:20;4.63;;;1.05;;
18838;SDS011;9548;56.920;14.804;2022-10-16T13:12:09;2.45;;;0.93;;
18838;SDS011;9548;56.920;14.804;2022-10-16T13:17:48;1.73;;;0.80;;
18838;SDS011;9548;56.920;14.804;2022-10-16T13:20:21;4.53;;;1.20;;
18838;SDS011;9548;56.920;14.804;2022-10-16T13:22:59;3.80;;;0.75;;
18838;SDS011;9548;56.920;14.804;2022-10-16T13:25:42;3.55;;;0.80;;
18838;SDS011;9548;56.920;14.804;2022-10-16T13:28:19;3.20;;;0.88;;
18838;SDS011;9548;56.920;14.804;2022-10-16T13:30:51;5.85;;;1.30;;
18838;SDS011;9548;56.920;14.804;2022-10-16T13:33:19;3.15;;;0.85;;
18838;SDS011;9548;56.920;14.804;2022-10-16T13:35:54;4.28;;;0.93;;
18838;SDS011;9548;56.920;14.804;2022-10-16T13:38:22;3.72;;;0.80;;
18838;SDS011;9548;56.920;14.804;2022-10-16T13:40:53;3.65;;;0.88;;
18838;SDS011;9548;56.920;14.804;2022-10-16T13:43:23;5.72;;;1.17;;
18838;SDS011;9548;56.920;14.804;2022-10-16T13:45:57;3.95;;;1.10;;
18838;SDS011;9548;56.920;14.804;2022-10-16T13:48:27;6.43;;;1.25;;
18838;SDS011;9548;56.920;14.804;2022-10-16T13:50:58;4.97;;;0.95;;
18838;SDS011;9548;56.920;14.804;2022-10-16T13:53:30;7.85;;;1.05;;
18838;SDS011;9548;56.920;14.804;2022-10-16T13:55:59;4.00;;;1.00;;
18838;SDS011;9548;56.920;14.804;2022-10-16T13:58:29;3.65;;;0.80;;
18838;SDS011;9548;56.920;14.804;2022-10-16T14:00:56;6.32;;;0.80;;
18838;SDS011;9548;56.920;14.804;2022-10-16T14:03:25;6.55;;;0.90;;
18838;SDS011;9548;56.920;14.804;2022-10-16T14:05:54;3.78;;;0.90;;
18838;SDS011;9548;56.920;14.804;2022-10-16T14:08:23;6.65;;;1.17;;
18838;SDS011;9548;56.920;14.804;2022-10-16T14:10:53;5.30;;;0.90;;
18838;SDS011;9548;56.920;14.804;2022-10-16T14:13:29;4.00;;;0.98;;
18838;SDS011;9548;56.920;14.804;2022-10-16T14:16:02;3.67;;;0.93;;
18838;SDS011;9548;56.920;14.804;2022-10-16T14:18:32;5.07;;;1.08;;
18838;SDS011;9548;56.920;14.804;2022-10-16T14:21:03;12.70;;;1.30;;
18838;SDS011;9548;56.920;14.804;2022-10-16T14:23:31;14.77;;;1.25;;
